Time;durP1;ratioP1;P1;durP2;ratioP2;P2;SDS_P1;SDS_P2;PMS_P1;PMS_P2;Temp;Humidity;BMP_temperature;BMP_pressure;BME280_temperature;BME280_humidity;BME280_pressure;Samples;Min_cycle;Max_cycle;Signal;HPM_P1;HPM_P2
2021/12/27 00:00:31;;;;;;;1.80;1.10;;;;;;;14.60;59.03;96014.03;5090748;28;20024;-32
2021/12/27 00:03:00;;;;;;;1.92;1.00;;;;;;;14.60;58.80;96020.25;5090788;28;20500;-32
2021/12/27 00:05:26;;;;;;;1.63;1.02;;;;;;;14.64;58.87;96011.91;5091097;28;20034;-32
2021/12/27 00:07:53;;;;;;;1.40;0.90;;;;;;;14.62;58.92;96020.53;5091196;28;20031;-32
2021/12/27 00:10:21;;;;;;;1.50;1.00;;;;;;;14.59;58.65;96016.00;5091132;28;20050;-32
2021/12/27 00:12:47;;;;;;;2.28;1.17;;;;;;;14.62;58.87;96020.53;5091004;28;20170;-32
2021/12/27 00:15:13;;;;;;;1.27;1.00;;;;;;;14.60;58.99;96028.44;5091022;28;20441;-32
2021/12/27 00:17:40;;;;;;;2.08;1.33;;;;;;;14.57;58.81;96026.66;5090737;28;20051;-32
2021/12/27 00:20:07;;;;;;;2.58;1.40;;;;;;;14.59;58.52;96028.88;5090720;28;20131;-32
2021/12/27 00:22:33;;;;;;;2.00;1.15;;;;;;;14.53;58.96;96026.06;5090584;28;20032;-32
2021/12/27 00:24:58;;;;;;;1.75;1.38;;;;;;;14.58;58.72;96028.16;5090252;28;20027;-32
2021/12/27 00:27:25;;;;;;;1.67;1.20;;;;;;;14.59;58.50;96023.44;5090680;28;20032;-32
2021/12/27 00:29:52;;;;;;;2.78;1.27;;;;;;;14.60;58.51;96022.22;5094279;28;20103;-32
2021/12/27 00:32:18;;;;;;;1.88;1.20;;;;;;;14.56;58.61;96030.59;5094396;28;20046;-32
2021/12/27 00:34:43;;;;;;;2.30;0.85;;;;;;;14.55;58.61;96031.06;5094448;28;20473;-31
2021/12/27 00:37:09;;;;;;;2.67;1.30;;;;;;;14.58;58.48;96030.88;5093928;28;20023;-32
2021/12/27 00:39:36;;;;;;;1.67;1.02;;;;;;;14.58;58.47;96033.63;5094316;28;20020;-33
2021/12/27 00:42:02;;;;;;;1.70;1.35;;;;;;;14.59;58.61;96024.19;5094183;28;20150;-32
2021/12/27 00:44:27;;;;;;;1.70;1.10;;;;;;;14.57;58.81;96034.06;5094308;28;20107;-32
2021/12/27 00:46:53;;;;;;;2.17;1.00;;;;;;;14.61;58.49;96029.19;5092084;28;20095;-32
2021/12/27 00:49:19;;;;;;;1.55;1.25;;;;;;;14.61;58.65;96029.94;5093876;28;20484;-32
2021/12/27 00:51:44;;;;;;;1.40;1.10;;;;;;;14.58;58.47;96025.44;5093984;28;20083;-32
2021/12/27 00:54:10;;;;;;;1.52;0.95;;;;;;;14.53;58.41;96020.59;5094123;28;20019;-33
2021/12/27 00:56:35;;;;;;;1.50;0.90;;;;;;;14.54;58.64;96027.56;5094077;28;20466;-32
2021/12/27 00:59:01;;;;;;;1.30;0.90;;;;;;;14.53;58.73;96026.06;5093964;28;20127;-32
2021/12/27 01:01:27;;;;;;;1.75;1.08;;;;;;;14.51;58.87;96031.22;5093687;28;20028;-32
2021/12/27 01:03:52;;;;;;;1.15;0.70;;;;;;;14.46;58.63;96026.41;5093972;28;20481;-32
2021/12/27 01:06:18;;;;;;;2.10;0.95;;;;;;;14.47;58.80;96027.88;5093737;28;20097;-33
2021/12/27 01:08:43;;;;;;;1.25;0.80;;;;;;;14.48;58.93;96023.19;5093723;28;20019;-32
2021/12/27 01:18:33;;;;;;;1.40;0.70;;;;;;;14.57;58.59;96036.81;5093360;28;20039;-32
2021/12/27 01:20:59;;;;;;;1.20;0.80;;;;;;;14.54;58.51;96035.75;5093588;28;20097;-32
2021/12/27 01:23:25;;;;;;;1.55;0.60;;;;;;;14.50;58.54;96034.41;5093492;28;20027;-32
2021/12/27 01:25:50;;;;;;;1.73;0.70;;;;;;;14.47;58.61;96033.34;5093236;28;20035;-32
2021/12/27 01:28:18;;;;;;;0.80;0.60;;;;;;;14.56;58.17;96029.84;5093346;28;20026;-32
2021/12/27 01:30:47;;;;;;;0.55;0.50;;;;;;;14.48;58.46;96031.38;5093102;28;20499;-32
2021/12/27 01:33:15;;;;;;;1.08;0.68;;;;;;;14.51;58.24;96036.66;5093128;28;20028;-32
2021/12/27 01:35:40;;;;;;;0.70;0.55;;;;;;;14.59;57.93;96037.06;5093045;28;20020;-32
2021/12/27 01:38:06;;;;;;;0.65;0.50;;;;;;;14.50;58.37;96032.41;5092927;28;20392;-32
2021/12/27 01:40:32;;;;;;;0.88;0.60;;;;;;;14.53;58.28;96045.16;5092193;28;20035;-32
2021/12/27 01:43:00;;;;;;;0.85;0.60;;;;;;;14.50;58.37;96043.34;5092720;28;20024;-32
2021/12/27 01:45:26;;;;;;;0.80;0.63;;;;;;;14.47;58.18;96046.22;5092785;28;20032;-32
2021/12/27 01:47:52;;;;;;;0.70;0.50;;;;;;;14.50;58.02;96053.50;5091136;28;20111;-32
2021/12/27 01:50:17;;;;;;;0.88;0.57;;;;;;;14.52;58.00;96048.34;5092339;28;20131;-32
2021/12/27 01:52:43;;;;;;;0.82;0.50;;;;;;;14.48;58.43;96045.75;5092567;28;20016;-32
2021/12/27 01:55:08;;;;;;;0.82;0.50;;;;;;;14.45;58.21;96049.44;5092630;28;20454;-32
2021/12/27 01:57:34;;;;;;;0.98;0.50;;;;;;;14.57;57.98;96051.22;5090855;28;20081;-32
2021/12/27 01:59:59;;;;;;;0.60;0.60;;;;;;;14.59;57.81;96051.47;5092872;28;20024;-32
2021/12/27 02:02:25;;;;;;;0.98;0.43;;;;;;;14.54;57.68;96049.41;5091911;28;20629;-32
2021/12/27 02:04:51;;;;;;;0.47;0.40;;;;;;;14.51;58.00;96055.75;5090442;28;20028;-32
2021/12/27 02:07:16;;;;;;;0.90;0.50;;;;;;;14.51;57.74;96068.66;5092540;28;20026;-32
2021/12/27 02:09:44;;;;;;;1.00;0.52;;;;;;;14.49;57.75;96062.91;5092148;28;20496;-32
2021/12/27 02:12:10;;;;;;;0.45;0.40;;;;;;;14.54;57.52;96063.03;5092400;28;20027;-32
2021/12/27 02:14:35;;;;;;;1.08;0.50;;;;;;;14.48;57.54;96062.13;5092378;28;20397;-32
2021/12/27 02:17:01;;;;;;;0.90;0.47;;;;;;;14.46;57.78;96064.59;5092107;28;20389;-32
2021/12/27 02:19:26;;;;;;;0.70;0.40;;;;;;;14.45;57.87;96060.34;5092411;28;20466;-32
2021/12/27 02:21:52;;;;;;;0.68;0.40;;;;;;;14.46;57.50;96067.31;5092325;28;20043;-32
2021/12/27 02:24:17;;;;;;;0.60;0.40;;;;;;;14.47;57.57;96062.59;5092316;28;20055;-32
2021/12/27 02:26:43;;;;;;;0.80;0.57;;;;;;;14.46;57.43;96066.56;5092104;28;20028;-32
2021/12/27 02:29:09;;;;;;;0.50;0.40;;;;;;;14.45;57.28;96063.06;5091983;28;20028;-33
2021/12/27 02:31:39;;;;;;;0.70;0.40;;;;;;;14.47;57.52;96071.53;5092277;28;20023;-32
2021/12/27 02:34:05;;;;;;;0.40;0.40;;;;;;;14.46;57.77;96080.97;5092028;28;20101;-32
2021/12/27 02:36:31;;;;;;;1.00;0.60;;;;;;;14.44;57.62;96075.22;5091969;28;20525;-32
2021/12/27 02:38:56;;;;;;;0.63;0.50;;;;;;;14.47;57.31;96070.78;5091840;28;20028;-32
2021/12/27 02:41:21;;;;;;;0.82;0.60;;;;;;;14.45;57.59;96068.53;5091970;28;20028;-32
2021/12/27 02:43:49;;;;;;;0.57;0.40;;;;;;;14.50;57.36;96070.63;5092048;28;20028;-32
2021/12/27 02:46:15;;;;;;;0.70;0.55;;;;;;;14.47;57.51;96060.63;5091953;28;20051;-32
2021/12/27 02:48:46;;;;;;;1.00;0.50;;;;;;;14.50;57.45;96056.22;5090259;28;20051;-32
2021/12/27 02:51:13;;;;;;;1.10;0.30;;;;;;;14.41;57.83;96057.03;5091471;28;20048;-32
2021/12/27 02:53:39;;;;;;;1.38;0.63;;;;;;;14.48;57.53;96056.69;5091875;28;20032;-32
2021/12/27 02:56:06;;;;;;;0.80;0.50;;;;;;;14.47;57.90;96054.41;5091337;28;20023;-32
2021/12/27 02:58:33;;;;;;;1.20;0.45;;;;;;;14.54;57.78;96060.31;5091179;28;20074;-32
2021/12/27 03:01:04;;;;;;;0.73;0.50;;;;;;;14.52;57.72;96061.97;5091345;28;20031;-32
2021/12/27 03:03:29;;;;;;;0.90;0.63;;;;;;;14.48;57.59;96051.22;5091733;28;20027;-32
2021/12/27 03:05:55;;;;;;;0.50;0.50;;;;;;;14.50;57.49;96065.16;5091178;28;20373;-32
2021/12/27 03:08:26;;;;;;;0.50;0.50;;;;;;;14.44;57.64;96050.66;5091443;28;20382;-32
2021/12/27 03:10:54;;;;;;;1.17;0.70;;;;;;;14.40;57.56;96060.97;5090313;28;20028;-32
2021/12/27 03:13:28;;;;;;;1.25;0.57;;;;;;;14.53;57.58;96058.03;5091164;28;20094;-32
2021/12/27 03:15:57;;;;;;;0.98;0.50;;;;;;;14.40;58.01;96060.97;5091518;28;20039;-32
2021/12/27 03:18:23;;;;;;;1.20;0.60;;;;;;;14.44;57.79;96056.09;5088574;28;20023;-32
2021/12/27 03:20:54;;;;;;;0.85;0.65;;;;;;;14.48;57.83;96067.59;5089020;28;20020;-31
2021/12/27 03:23:20;;;;;;;1.00;0.70;;;;;;;14.46;57.77;96070.06;5093492;28;20537;-32
2021/12/27 03:25:46;;;;;;;0.98;0.70;;;;;;;14.55;57.84;96066.53;5093434;28;20024;-32
2021/12/27 03:28:12;;;;;;;2.45;0.75;;;;;;;14.52;57.60;96064.72;5093327;28;20023;-32
2021/12/27 03:30:39;;;;;;;1.10;0.55;;;;;;;14.45;57.88;96060.34;5093244;28;20537;-32
2021/12/27 03:33:07;;;;;;;0.80;0.60;;;;;;;14.48;57.84;96062.13;5093357;28;20107;-31
2021/12/27 03:35:38;;;;;;;1.08;0.75;;;;;;;14.48;58.08;96056.69;5093459;28;20074;-32
2021/12/27 03:38:07;;;;;;;1.15;0.88;;;;;;;14.47;58.23;96041.53;5093360;28;20020;-32
2021/12/27 03:40:33;;;;;;;1.13;0.60;;;;;;;14.45;58.06;96033.06;5093123;28;20063;-32
2021/12/27 03:42:58;;;;;;;0.50;0.50;;;;;;;14.49;58.20;96033.63;5093303;28;20052;-32
2021/12/27 03:45:36;;;;;;;1.13;0.50;;;;;;;14.49;58.33;96041.06;5093185;28;20032;-32
2021/12/27 03:48:03;;;;;;;1.08;0.60;;;;;;;14.48;58.34;96039.56;5093677;28;20044;-32
2021/12/27 03:50:29;;;;;;;0.88;0.75;;;;;;;14.41;58.32;96040.66;5093154;28;20043;-32
2021/12/27 03:52:56;;;;;;;0.80;0.50;;;;;;;14.52;57.96;96043.63;5091867;28;20089;-32
2021/12/27 03:55:23;;;;;;;0.85;0.60;;;;;;;14.50;58.15;96037.88;5093000;28;20478;-32
2021/12/27 03:58:04;;;;;;;0.88;0.80;;;;;;;14.45;58.36;96038.53;5093070;28;20028;-32
2021/12/27 04:00:45;;;;;;;0.95;0.60;;;;;;;14.46;58.28;96037.31;5093054;28;20035;-32
2021/12/27 04:03:10;;;;;;;1.10;0.60;;;;;;;14.53;58.28;96047.88;5094748;28;20020;-32
2021/12/27 04:05:36;;;;;;;0.70;0.50;;;;;;;14.49;58.25;96054.72;5096779;28;20386;-32
2021/12/27 04:08:09;;;;;;;0.88;0.60;;;;;;;14.43;58.30;96054.59;5097049;28;20033;-32
2021/12/27 04:10:39;;;;;;;1.27;0.55;;;;;;;14.54;58.18;96052.13;5096838;28;20051;-32
2021/12/27 04:13:08;;;;;;;2.92;0.88;;;;;;;14.46;58.61;96047.47;5095495;28;20024;-32
2021/12/27 04:15:34;;;;;;;2.45;1.08;;;;;;;14.48;58.51;96047.75;5096596;28;20519;-32
2021/12/27 04:18:00;;;;;;;0.65;0.50;;;;;;;14.55;58.30;96056.38;5096732;28;20027;-32
2021/12/27 04:20:26;;;;;;;1.52;0.70;;;;;;;14.55;58.33;96050.16;5096523;28;20449;-32
2021/12/27 04:22:51;;;;;;;1.75;0.60;;;;;;;14.50;58.37;96054.25;5096478;28;20389;-32
2021/12/27 04:25:19;;;;;;;0.90;0.55;;;;;;;14.50;58.49;96053.50;5096506;28;20020;-32
2021/12/27 04:27:46;;;;;;;1.58;1.13;;;;;;;14.56;58.36;96055.16;5096389;28;20024;-32
2021/12/27 04:30:13;;;;;;;1.00;0.60;;;;;;;14.49;58.52;96046.53;5096523;28;20020;-33
2021/12/27 04:32:39;;;;;;;1.50;0.60;;;;;;;14.53;58.50;96058.03;5096615;28;20017;-32
2021/12/27 04:35:05;;;;;;;2.55;1.42;;;;;;;14.47;58.72;96054.41;5096506;28;20034;-32
2021/12/27 04:37:31;;;;;;;1.33;0.52;;;;;;;14.52;58.67;96051.81;5096181;28;20028;-32
2021/12/27 04:40:00;;;;;;;1.23;0.70;;;;;;;14.49;58.58;96050.00;5096259;28;20028;-32
2021/12/27 04:42:31;;;;;;;1.08;0.63;;;;;;;14.51;58.39;96058.50;5095941;28;20027;-32
2021/12/27 04:44:57;;;;;;;0.70;0.55;;;;;;;14.57;58.16;96064.84;5096154;28;20047;-32
2021/12/27 04:47:22;;;;;;;3.22;0.90;;;;;;;14.55;58.57;96059.09;5095195;28;20031;-32
2021/12/27 04:49:48;;;;;;;1.48;0.60;;;;;;;14.48;58.73;96062.13;5095684;28;20102;-32
2021/12/27 04:52:13;;;;;;;1.15;0.50;;;;;;;14.48;58.64;96062.13;5096018;28;20512;-32
2021/12/27 04:54:39;;;;;;;0.88;0.60;;;;;;;14.52;58.44;96061.97;5096028;28;20027;-32
2021/12/27 04:57:05;;;;;;;1.58;0.60;;;;;;;14.45;58.59;96057.63;5096105;28;20072;-32
2021/12/27 04:59:31;;;;;;;1.88;0.60;;;;;;;14.50;58.71;96065.16;5095830;28;20024;-33
2021/12/27 05:01:56;;;;;;;1.58;0.60;;;;;;;14.53;58.39;96068.94;5095909;28;20034;-32
2021/12/27 05:04:22;;;;;;;1.35;0.60;;;;;;;14.51;58.46;96066.69;5095826;28;20032;-32
2021/12/27 05:06:47;;;;;;;1.27;0.68;;;;;;;14.55;58.51;96067.28;5095806;28;20081;-32
2021/12/27 05:09:13;;;;;;;0.95;0.60;;;;;;;14.54;58.36;96057.56;5095565;28;20020;-32
2021/12/27 05:11:40;;;;;;;2.70;0.80;;;;;;;14.54;58.72;96054.84;5095618;28;20493;-32
2021/12/27 05:14:06;;;;;;;2.15;0.88;;;;;;;14.55;58.57;96061.06;5094657;28;20031;-32
2021/12/27 05:16:32;;;;;;;1.35;0.70;;;;;;;14.55;58.55;96061.06;5096113;28;20020;-32
2021/12/27 05:18:57;;;;;;;2.03;0.75;;;;;;;14.53;58.64;96055.31;5095446;28;20501;-33
2021/12/27 05:21:23;;;;;;;1.52;0.80;;;;;;;14.47;58.70;96063.34;5082873;28;20386;-32
2021/12/27 05:23:48;;;;;;;1.52;0.90;;;;;;;14.52;58.69;96065.47;5079164;28;20028;-32
2021/12/27 05:26:14;;;;;;;2.42;1.00;;;;;;;14.45;58.83;96065.81;5095594;28;20028;-31
2021/12/27 05:28:39;;;;;;;2.25;0.90;;;;;;;14.49;58.80;96057.44;5095445;28;20024;-32
2021/12/27 05:31:05;;;;;;;4.70;1.15;;;;;;;14.49;58.52;96069.09;5095215;28;20419;-32
2021/12/27 05:33:31;;;;;;;1.27;0.90;;;;;;;14.45;59.02;96065.81;5095192;28;20095;-32
2021/12/27 05:35:56;;;;;;;1.70;0.70;;;;;;;14.50;58.65;96081.53;5095064;28;20028;-32
2021/12/27 05:38:22;;;;;;;1.98;0.90;;;;;;;14.51;58.85;96080.31;5093801;28;20028;-32
2021/12/27 05:40:48;;;;;;;1.27;0.85;;;;;;;14.49;58.88;96080.03;5095109;28;20039;-32
2021/12/27 05:43:13;;;;;;;1.95;0.90;;;;;;;14.50;58.54;96070.63;5095272;28;20048;-32
2021/12/27 05:45:39;;;;;;;1.52;1.00;;;;;;;14.46;58.93;96086.41;5094874;28;20028;-32
2021/12/27 05:48:06;;;;;;;2.45;0.93;;;;;;;14.45;58.83;96078.69;5093925;28;20016;-32
2021/12/27 05:50:32;;;;;;;1.00;0.80;;;;;;;14.48;58.70;96080.47;5094816;28;20369;-32
2021/12/27 05:52:58;;;;;;;1.65;1.00;;;;;;;14.46;58.61;96091.88;5094741;28;20034;-32
2021/12/27 05:55:24;;;;;;;1.70;0.75;;;;;;;14.51;58.42;96095.94;5095020;28;20016;-32
2021/12/27 05:57:50;;;;;;;2.08;0.93;;;;;;;14.51;58.49;96093.97;5094660;28;20020;-32
2021/12/27 06:00:16;;;;;;;2.47;0.90;;;;;;;14.47;58.66;96093.38;5094752;28;20024;-32
2021/12/27 06:02:43;;;;;;;2.50;1.17;;;;;;;14.45;58.62;96101.28;5094566;28;20024;-32
2021/12/27 06:05:11;;;;;;;1.95;1.20;;;;;;;14.46;58.63;96097.34;5094638;28;20392;-32
2021/12/27 06:07:37;;;;;;;1.77;0.90;;;;;;;14.48;58.58;96099.56;5094537;28;20408;-32
2021/12/27 06:10:04;;;;;;;1.25;0.80;;;;;;;14.45;58.53;96106.72;5094911;28;20028;-32
2021/12/27 06:12:29;;;;;;;1.48;1.02;;;;;;;14.43;58.60;96111.88;5094410;28;20028;-32
2021/12/27 06:14:55;;;;;;;2.15;1.05;;;;;;;14.42;58.61;96106.88;5094195;28;20031;-32
2021/12/27 06:17:20;;;;;;;1.20;0.90;;;;;;;14.41;58.83;96100.66;5094481;28;20024;-32
2021/12/27 06:19:46;;;;;;;2.38;1.38;;;;;;;14.45;58.51;96098.56;5094356;28;20034;-32
2021/12/27 06:22:12;;;;;;;1.70;1.10;;;;;;;14.44;58.72;96102.50;5094148;28;20038;-32
2021/12/27 06:24:37;;;;;;;1.70;1.20;;;;;;;14.36;59.01;96110.19;5094370;28;20085;-32
2021/12/27 06:27:03;;;;;;;3.78;1.20;;;;;;;14.40;58.73;96106.59;5093937;28;20031;-31
2021/12/27 06:29:28;;;;;;;3.08;1.20;;;;;;;14.45;58.66;96111.44;5094093;28;20093;-33
2021/12/27 06:31:54;;;;;;;3.15;1.42;;;;;;;14.44;58.29;96115.38;5094394;28;20445;-31
2021/12/27 06:34:19;;;;;;;2.58;1.27;;;;;;;14.44;58.26;96123.56;5092813;28;20031;-32
2021/12/27 06:36:45;;;;;;;1.60;0.90;;;;;;;14.40;58.65;96118.25;5091462;28;20119;-32
2021/12/27 06:39:11;;;;;;;1.42;0.98;;;;;;;14.38;58.32;96123.38;5092082;28;20028;-32
2021/12/27 06:41:36;;;;;;;1.88;1.15;;;;;;;14.43;58.43;96133.72;5090387;28;20059;-32
2021/12/27 06:44:03;;;;;;;1.80;1.13;;;;;;;14.40;58.48;96137.34;5091848;28;20024;-33
2021/12/27 06:46:29;;;;;;;4.85;1.08;;;;;;;14.43;58.52;96141.91;5091662;28;20020;-33
2021/12/27 06:48:55;;;;;;;2.97;1.30;;;;;;;14.46;58.23;96142.97;5090152;28;20110;-32
2021/12/27 06:51:20;;;;;;;3.90;1.10;;;;;;;14.46;58.06;96141.00;5091861;28;20489;-33
2021/12/27 06:53:46;;;;;;;2.65;1.10;;;;;;;14.43;58.40;96152.81;5091782;28;20085;-32
2021/12/27 06:56:12;;;;;;;2.90;1.10;;;;;;;14.42;58.35;96148.56;5091756;28;20126;-32
2021/12/27 06:58:37;;;;;;;2.25;1.20;;;;;;;14.42;58.23;96150.53;5090289;28;20028;-32
2021/12/27 07:01:04;;;;;;;2.25;1.30;;;;;;;14.39;58.05;96146.72;5092018;28;20103;-32
2021/12/27 07:03:30;;;;;;;3.13;1.17;;;;;;;14.45;57.94;96144.94;5091475;28;20024;-32
2021/12/27 07:05:55;;;;;;;1.23;0.93;;;;;;;14.42;58.25;96147.81;5091455;28;20031;-32
2021/12/27 07:08:22;;;;;;;1.67;1.33;;;;;;;14.34;58.28;96150.81;5091566;28;20032;-32
2021/12/27 07:10:49;;;;;;;3.47;1.13;;;;;;;14.35;58.11;96148.84;5091317;28;20020;-32
2021/12/27 07:13:15;;;;;;;2.35;1.00;;;;;;;14.46;57.75;96156.59;5091691;28;20035;-32
2021/12/27 07:15:44;;;;;;;2.63;1.65;;;;;;;14.41;58.16;96138.88;5091483;28;20028;-32
2021/12/27 07:18:12;;;;;;;3.45;3.10;;;;;;;14.35;58.17;96141.41;5091579;28;20035;-32
2021/12/27 07:20:38;;;;;;;4.28;2.95;;;;;;;14.51;57.79;96147.78;5091503;28;20111;-32
2021/12/27 07:23:05;;;;;;;3.75;2.53;;;;;;;14.41;58.06;96149.78;5091069;28;20056;-32
2021/12/27 07:25:30;;;;;;;3.80;2.63;;;;;;;14.50;57.68;96157.94;5091302;28;20031;-31
2021/12/27 07:27:57;;;;;;;3.85;2.85;;;;;;;14.40;57.83;96159.19;5089935;28;20042;-32
2021/12/27 07:30:23;;;;;;;4.85;3.38;;;;;;;14.39;57.87;96165.81;5091300;28;20066;-32
2021/12/27 07:32:49;;;;;;;3.15;2.30;;;;;;;14.42;57.99;96162.22;5091323;28;20461;-32
2021/12/27 07:35:14;;;;;;;3.63;2.65;;;;;;;14.39;58.21;96163.09;5091192;28;20036;-32
2021/12/27 07:37:41;;;;;;;3.70;2.40;;;;;;;14.42;57.84;96156.75;5091947;28;20051;-32
2021/12/27 07:40:08;;;;;;;2.67;2.25;;;;;;;14.44;57.79;96164.47;5095484;28;20074;-32
2021/12/27 07:42:33;;;;;;;2.95;2.55;;;;;;;14.49;57.60;96161.88;5095121;28;20033;-32
2021/12/27 07:44:59;;;;;;;3.85;2.50;;;;;;;14.40;57.96;96164.63;5095263;28;20024;-32
2021/12/27 07:47:25;;;;;;;2.70;2.03;;;;;;;14.45;57.98;96174.19;5095024;28;20028;-32
2021/12/27 07:49:50;;;;;;;4.55;2.22;;;;;;;14.43;58.18;96177.38;5093316;28;20027;-32
2021/12/27 07:52:16;;;;;;;3.78;2.95;;;;;;;14.42;58.17;96178.59;5094822;28;20077;-32
2021/12/27 07:54:42;;;;;;;5.55;2.70;;;;;;;14.38;58.21;96183.41;5093654;28;20036;-32
2021/12/27 07:57:07;;;;;;;3.92;2.60;;;;;;;14.45;58.01;96183.13;5094708;28;20031;-32
2021/12/27 07:59:33;;;;;;;3.15;2.42;;;;;;;14.43;58.23;96179.34;5094501;28;20366;-32
2021/12/27 08:01:58;;;;;;;3.80;2.85;;;;;;;14.48;57.96;96175.97;5094958;28;20347;-32
2021/12/27 08:04:24;;;;;;;4.55;2.92;;;;;;;14.50;58.18;96177.03;5097604;28;20035;-33
2021/12/27 08:06:50;;;;;;;3.60;2.47;;;;;;;14.44;58.30;96178.88;5094873;28;20481;-32
2021/12/27 08:09:16;;;;;;;3.50;2.70;;;;;;;14.41;58.59;96168.88;5094930;28;20115;-32
2021/12/27 08:11:42;;;;;;;3.53;2.75;;;;;;;14.45;58.32;96161.31;5100019;28;20440;-32
2021/12/27 08:14:08;;;;;;;3.78;2.42;;;;;;;14.41;58.58;96168.13;5114911;28;20023;-32
2021/12/27 08:16:33;;;;;;;4.20;2.90;;;;;;;14.40;58.77;96159.19;5114687;27;20039;-32
2021/12/27 08:18:59;;;;;;;4.70;2.20;;;;;;;13.56;62.16;96165.06;5113535;28;20030;-32
2021/12/27 08:21:26;;;;;;;4.82;2.50;;;;;;;13.93;61.32;96176.00;5114021;28;20036;-32
2021/12/27 08:23:52;;;;;;;4.70;1.98;;;;;;;14.10;60.92;96173.72;5113654;28;20354;-32
2021/12/27 08:26:18;;;;;;;4.53;2.05;;;;;;;14.23;60.60;96180.53;5113767;28;20030;-32
2021/12/27 08:28:48;;;;;;;2.95;1.80;;;;;;;14.35;60.00;96187.78;5113776;27;20027;-32
2021/12/27 08:31:13;;;;;;;3.15;1.88;;;;;;;14.37;59.75;96182.63;5114241;28;20152;-32
2021/12/27 08:33:39;;;;;;;3.08;2.03;;;;;;;14.34;59.67;96180.81;5114820;28;20107;-34
2021/12/27 08:36:05;;;;;;;4.18;2.10;;;;;;;14.42;59.64;96184.03;5114531;28;20102;-32
2021/12/27 08:38:31;;;;;;;2.85;2.20;;;;;;;14.36;59.76;96194.75;5114741;28;20494;-32
2021/12/27 08:40:57;;;;;;;2.42;1.70;;;;;;;14.44;59.42;96197.97;5114598;28;20034;-33
2021/12/27 08:43:22;;;;;;;2.47;1.77;;;;;;;14.44;59.31;96213.59;5114474;28;20114;-32
2021/12/27 08:45:48;;;;;;;3.72;2.30;;;;;;;14.45;59.52;96218.59;5114246;28;20085;-32
2021/12/27 08:48:14;;;;;;;3.35;1.50;;;;;;;14.43;59.47;96209.34;5113800;28;20377;-32
2021/12/27 08:50:40;;;;;;;3.70;2.10;;;;;;;14.36;59.98;96218.56;5111765;28;20135;-32
2021/12/27 08:53:07;;;;;;;2.00;1.67;;;;;;;14.37;59.83;96209.91;5074025;28;20021;-32
2021/12/27 08:55:34;;;;;;;2.80;1.90;;;;;;;14.31;60.17;96209.03;5073783;28;20028;-32
2021/12/27 08:58:00;;;;;;;2.33;1.52;;;;;;;14.32;60.01;96207.81;5073849;28;20450;-32
2021/12/27 09:00:26;;;;;;;4.80;2.00;;;;;;;14.42;59.79;96216.03;5073475;28;20058;-33
2021/12/27 09:02:51;;;;;;;3.40;2.03;;;;;;;14.43;59.73;96212.84;5073493;28;20029;-32
2021/12/27 09:05:17;;;;;;;3.22;1.70;;;;;;;14.38;60.08;96211.44;5073651;28;20078;-32
2021/12/27 09:07:42;;;;;;;3.22;1.60;;;;;;;14.38;60.16;96205.97;5073318;28;20034;-32
2021/12/27 09:10:09;;;;;;;3.20;1.75;;;;;;;14.42;59.96;96216.03;5073140;28;20025;-32
2021/12/27 09:12:35;;;;;;;2.65;1.73;;;;;;;14.45;59.97;96210.41;5087963;28;20027;-32
2021/12/27 09:15:01;;;;;;;2.17;1.50;;;;;;;14.42;60.43;96219.50;5093518;28;20497;-32
2021/12/27 09:17:26;;;;;;;2.80;1.40;;;;;;;14.46;60.21;96211.16;5093461;28;20039;-32
2021/12/27 09:19:51;;;;;;;2.28;1.58;;;;;;;14.24;61.20;96216.75;5093613;28;20032;-34
2021/12/27 09:22:18;;;;;;;3.50;1.50;;;;;;;14.36;61.03;96215.84;5093038;28;20370;-33
2021/12/27 09:24:45;;;;;;;4.22;1.50;;;;;;;14.45;60.61;96215.88;5093341;28;20032;-32
2021/12/27 09:27:10;;;;;;;4.03;1.52;;;;;;;14.43;60.80;96218.28;5093500;28;20082;-33
2021/12/27 09:29:36;;;;;;;3.78;1.55;;;;;;;14.38;60.89;96207.94;5093289;28;20024;-32
2021/12/27 09:32:03;;;;;;;2.45;1.60;;;;;;;14.43;61.03;96212.84;5093410;28;20385;-32
2021/12/27 09:34:28;;;;;;;2.25;1.30;;;;;;;14.49;60.53;96215.69;5093015;28;20057;-32
2021/12/27 09:36:54;;;;;;;4.97;1.70;;;;;;;14.42;60.65;96224.19;5093085;28;20020;-33
2021/12/27 09:39:19;;;;;;;4.55;1.55;;;;;;;14.48;60.52;96209.47;5093133;28;20069;-32
2021/12/27 09:41:45;;;;;;;3.05;1.48;;;;;;;14.46;60.75;96222.84;5091579;28;20081;-32
2021/12/27 09:44:11;;;;;;;4.00;1.55;;;;;;;14.46;60.80;96222.84;5092920;28;20030;-33
2021/12/27 09:46:37;;;;;;;3.72;1.42;;;;;;;14.34;61.36;96226.47;5092727;28;20098;-32
2021/12/27 09:49:09;;;;;;;1.90;1.65;;;;;;;14.29;61.60;96222.38;5091088;28;20512;-32
2021/12/27 09:51:37;;;;;;;1.70;1.38;;;;;;;14.45;61.04;96223.28;5092768;28;20429;-32
2021/12/27 09:54:04;;;;;;;4.82;1.75;;;;;;;14.32;61.20;96231.63;5092764;28;20097;-32
2021/12/27 09:56:29;;;;;;;3.53;1.83;;;;;;;14.49;60.57;96224.63;5092779;28;20067;-32
2021/12/27 09:58:55;;;;;;;3.78;1.52;;;;;;;14.53;60.58;96222.53;5092466;28;20054;-32
2021/12/27 10:01:21;;;;;;;2.13;1.40;;;;;;;14.50;60.62;96220.69;5090665;28;20085;-32
2021/12/27 10:03:56;;;;;;;4.03;2.15;;;;;;;14.59;60.45;96219.91;5092481;28;20020;-32
2021/12/27 10:06:24;;;;;;;2.95;1.30;;;;;;;14.54;60.32;96207.66;5092415;28;20055;-32
2021/12/27 10:08:52;;;;;;;3.38;1.15;;;;;;;14.48;60.71;96206.75;5092473;28;20039;-32
2021/12/27 10:11:33;;;;;;;2.28;1.38;;;;;;;14.57;60.39;96206.00;5092052;28;20020;-33
2021/12/27 10:14:20;;;;;;;1.85;1.35;;;;;;;14.50;60.44;96195.38;5092399;28;20020;-32
2021/12/27 10:16:48;;;;;;;3.63;1.40;;;;;;;14.48;60.36;96195.84;5092154;28;20024;-32
2021/12/27 10:19:16;;;;;;;2.28;1.77;;;;;;;14.49;60.52;96200.09;5092212;28;20481;-32
2021/12/27 10:21:43;;;;;;;1.83;1.33;;;;;;;14.53;60.17;96189.78;5092258;28;20032;-32
2021/12/27 10:24:15;;;;;;;3.10;1.35;;;;;;;14.60;60.10;96185.97;5091474;28;20107;-32
2021/12/27 10:26:45;;;;;;;2.38;1.40;;;;;;;14.59;60.20;96176.25;5091689;28;20081;-33
2021/12/27 10:29:23;;;;;;;4.70;1.63;;;;;;;14.56;60.33;96177.19;5092463;28;20051;-33
2021/12/27 10:32:10;;;;;;;5.03;1.40;;;;;;;14.56;60.08;96186.13;5094044;28;20031;-32
2021/12/27 10:34:43;;;;;;;1.70;1.25;;;;;;;14.55;60.06;96186.59;5092982;28;20145;-32
2021/12/27 10:37:16;;;;;;;2.05;0.93;;;;;;;14.62;59.95;96191.72;5094107;28;20024;-32
2021/12/27 10:39:56;;;;;;;2.60;1.13;;;;;;;14.62;60.01;96194.44;5093779;28;20031;-33
2021/12/27 10:42:24;;;;;;;2.63;1.10;;;;;;;14.64;59.90;96200.22;5093742;28;20491;-33
2021/12/27 10:44:53;;;;;;;3.05;1.38;;;;;;;14.62;59.96;96186.25;5092244;28;20032;-33
2021/12/27 10:47:32;;;;;;;3.08;1.23;;;;;;;14.67;59.82;96185.66;5093419;28;20035;-32
2021/12/27 10:50:03;;;;;;;1.90;1.08;;;;;;;14.62;60.09;96187.03;5093692;28;20095;-32
2021/12/27 10:52:47;;;;;;;2.83;1.05;;;;;;;14.56;60.38;96188.88;5093775;28;20022;-32
2021/12/27 10:55:15;;;;;;;2.88;1.20;;;;;;;14.65;59.87;96177.91;5093625;28;20054;-32
2021/12/27 10:57:41;;;;;;;2.05;1.20;;;;;;;14.62;60.01;96187.03;5093573;28;20123;-32
2021/12/27 11:00:31;;;;;;;1.83;0.90;;;;;;;14.57;60.16;96184.94;5093593;28;20039;-33
2021/12/27 11:02:59;;;;;;;3.47;1.20;;;;;;;14.51;60.40;96177.81;5093493;28;20042;-32
2021/12/27 11:05:26;;;;;;;2.97;1.10;;;;;;;14.60;60.38;96185.97;5093467;28;20017;-32
2021/12/27 11:07:54;;;;;;;3.97;2.33;;;;;;;14.37;61.81;96182.63;5093541;28;20024;-32
2021/12/27 11:10:21;;;;;;;3.85;2.20;;;;;;;14.36;62.26;96175.66;5093752;28;20030;-33
2021/12/27 11:12:50;;;;;;;3.13;1.80;;;;;;;14.43;61.47;96168.44;5092485;28;20470;-32
2021/12/27 11:15:16;;;;;;;3.08;2.13;;;;;;;14.46;61.18;96176.47;5093592;28;20034;-32
2021/12/27 11:17:41;;;;;;;4.55;2.35;;;;;;;14.35;61.69;96157.78;5093349;28;20515;-32
2021/12/27 11:20:09;;;;;;;5.35;2.45;;;;;;;14.37;61.57;96162.78;5093650;28;20027;-32
2021/12/27 11:22:40;;;;;;;5.45;2.90;;;;;;;14.31;63.05;96172.81;5093299;28;20031;-32
2021/12/27 11:25:18;;;;;;;4.63;2.47;;;;;;;14.30;62.62;96171.28;5093204;28;20024;-32
2021/12/27 11:27:43;;;;;;;3.72;2.28;;;;;;;14.41;62.06;96163.41;5093275;28;20028;-32
2021/12/27 11:30:09;;;;;;;4.40;2.30;;;;;;;14.43;62.05;96168.44;5093257;28;20109;-32
2021/12/27 11:32:36;;;;;;;7.60;3.28;;;;;;;14.41;62.91;96171.59;5093260;28;20035;-32
2021/12/27 11:35:09;;;;;;;4.57;2.53;;;;;;;14.51;62.45;96170.38;5093387;28;20065;-34
2021/12/27 11:37:43;;;;;;;4.18;2.33;;;;;;;14.57;62.26;96168.56;5093133;28;20024;-33
2021/12/27 11:40:15;;;;;;;5.60;2.40;;;;;;;14.56;61.87;96158.84;5093406;28;20028;-32